Terminal Aerodrome Forecast
Issued by NWS

Home | Current Version | Previous Version | Text Only | Print | Product List | Glossary On
Versions: 1 2 3 4 5 6 7 8 9 10 11 12
000
FTAK31 PAFA 211138
TAFAOR
TAF
PAOR 211138Z 2112/2212 VRB04KT P6SM FEW060 SCT090 BKN170
     FM212000 14006KT P6SM FEW050 SCT120 BKN200
     FM220400 VRB04KT P6SM FEW100 SCT200=

USA.gov is the U.S. government's official web portal to all federal, state and local government web resources and services.